Time;durP1;ratioP1;P1;durP2;ratioP2;P2;SDS_P1;SDS_P2;PMS_P1;PMS_P2;Temp;Humidity;BMP_temperature;BMP_pressure;BME280_temperature;BME280_humidity;BME280_pressure;Samples;Min_cycle;Max_cycle;Signal;HPM_P1;HPM_P2
2021/09/03 00:00:12;;;;;;;21.15;16.35;;;13.60;95.80;;;;;;4954696;28;20027;-86
2021/09/03 00:02:38;;;;;;;22.85;17.13;;;13.50;95.80;;;;;;4957921;28;20035;-87
2021/09/03 00:05:06;;;;;;;25.10;16.77;;;13.40;96.70;;;;;;4956914;28;20042;-87
2021/09/03 00:07:31;;;;;;;24.83;17.92;;;13.40;96.40;;;;;;4956787;28;20031;-86
2021/09/03 00:09:57;;;;;;;25.88;17.20;;;13.30;96.80;;;;;;4954482;28;20034;-86
2021/09/03 00:12:23;;;;;;;23.38;17.08;;;13.30;98.20;;;;;;4948064;28;21002;-87
2021/09/03 00:14:48;;;;;;;31.20;18.67;;;13.30;98.40;;;;;;4954088;28;20027;-87
2021/09/03 00:17:14;;;;;;;26.42;17.80;;;13.30;99.50;;;;;;4966019;28;20038;-87
2021/09/03 00:19:41;;;;;;;25.10;17.67;;;13.30;99.90;;;;;;4958301;28;20126;-87
2021/09/03 00:22:07;;;;;;;27.33;17.30;;;13.30;97.90;;;;;;4984963;28;20106;-87
2021/09/03 00:24:32;;;;;;;26.73;18.00;;;13.20;97.40;;;;;;4955267;28;20058;-87
2021/09/03 00:26:58;;;;;;;25.77;19.42;;;13.20;97.90;;;;;;4952756;28;20023;-87
2021/09/03 00:29:23;;;;;;;27.02;18.35;;;13.20;97.20;;;;;;4981603;28;20114;-87
2021/09/03 00:31:55;;;;;;;23.20;17.35;;;13.00;97.20;;;;;;4985633;28;20101;-87
2021/09/03 00:34:20;;;;;;;24.52;17.08;;;12.90;97.60;;;;;;4957423;28;20383;-87
2021/09/03 00:36:47;;;;;;;30.20;18.48;;;12.80;97.90;;;;;;4981306;28;20064;-87
2021/09/03 00:39:12;;;;;;;26.35;18.05;;;12.80;97.90;;;;;;4940125;28;20704;-87
2021/09/03 00:41:38;;;;;;;25.60;17.48;;;12.90;98.00;;;;;;4950426;28;20031;-87
2021/09/03 00:44:03;;;;;;;32.55;18.40;;;12.80;98.00;;;;;;4951996;28;20388;-87
2021/09/03 00:46:29;;;;;;;25.60;16.35;;;12.70;98.10;;;;;;4953763;28;20130;-87
2021/09/03 00:48:56;;;;;;;26.55;17.05;;;12.70;98.30;;;;;;4985867;28;20035;-87
2021/09/03 00:51:22;;;;;;;23.58;16.52;;;12.90;98.10;;;;;;4972292;28;20162;-87
2021/09/03 00:53:50;;;;;;;24.40;16.35;;;13.00;98.40;;;;;;4947886;28;20117;-87
2021/09/03 00:56:16;;;;;;;24.20;17.73;;;12.90;98.50;;;;;;4956996;28;20039;-87
2021/09/03 00:58:42;;;;;;;25.67;17.58;;;13.00;98.00;;;;;;4952968;28;20181;-87
2021/09/03 01:01:07;;;;;;;27.42;16.35;;;12.90;97.80;;;;;;4948657;28;20042;-88
2021/09/03 01:03:33;;;;;;;23.83;15.82;;;12.90;98.40;;;;;;4941402;28;20549;-87
2021/09/03 01:06:08;;;;;;;24.88;17.02;;;12.80;98.30;;;;;;4952892;28;20112;-87
2021/09/03 01:08:33;;;;;;;22.73;16.50;;;12.70;98.50;;;;;;4947826;28;20036;-87
2021/09/03 01:10:59;;;;;;;28.73;17.30;;;12.80;98.10;;;;;;4955665;28;20624;-85
2021/09/03 01:13:26;;;;;;;24.92;17.08;;;12.80;98.90;;;;;;4935311;28;20514;-87
2021/09/03 01:15:51;;;;;;;22.98;17.25;;;12.70;98.20;;;;;;4953101;28;20045;-87
2021/09/03 01:18:17;;;;;;;25.08;18.00;;;12.70;98.50;;;;;;4945899;28;20039;-86
2021/09/03 01:20:43;;;;;;;24.83;17.33;;;12.90;97.60;;;;;;4947106;28;20031;-86
2021/09/03 01:23:08;;;;;;;21.35;17.40;;;12.80;97.20;;;;;;4973218;28;20031;-86
2021/09/03 01:25:34;;;;;;;25.98;16.83;;;12.80;97.90;;;;;;4953579;28;20035;-87
2021/09/03 01:27:59;;;;;;;22.90;16.55;;;12.80;97.70;;;;;;4950242;28;20060;-86
2021/09/03 01:30:25;;;;;;;30.95;16.30;;;12.70;97.30;;;;;;4970406;28;20146;-87
2021/09/03 01:32:50;;;;;;;21.02;15.48;;;12.60;97.40;;;;;;4947098;28;20054;-86
2021/09/03 01:35:16;;;;;;;22.92;16.20;;;12.60;97.50;;;;;;4938731;28;20035;-87
2021/09/03 01:37:41;;;;;;;26.38;16.25;;;12.50;97.50;;;;;;4960476;28;20062;-87
2021/09/03 01:40:08;;;;;;;23.10;16.83;;;12.50;97.60;;;;;;4951439;28;20026;-87
2021/09/03 01:42:33;;;;;;;23.20;14.43;;;12.40;97.90;;;;;;4954059;28;20689;-87
2021/09/03 01:44:59;;;;;;;22.05;15.07;;;12.60;98.50;;;;;;4953513;28;20031;-86
2021/09/03 01:47:24;;;;;;;26.65;14.95;;;12.50;97.90;;;;;;4954492;28;20031;-87
2021/09/03 01:49:50;;;;;;;21.27;15.65;;;12.50;97.10;;;;;;4966403;28;20027;-87
2021/09/03 01:52:15;;;;;;;23.63;15.52;;;12.50;97.30;;;;;;4931078;28;20042;-86
2021/09/03 01:54:41;;;;;;;19.38;15.18;;;12.40;97.50;;;;;;4955006;28;20023;-87
2021/09/03 01:57:07;;;;;;;20.52;15.80;;;12.40;97.50;;;;;;4953597;28;20077;-86
2021/09/03 01:59:32;;;;;;;24.05;16.13;;;12.40;97.30;;;;;;4954709;28;20174;-87
2021/09/03 02:01:58;;;;;;;20.45;14.73;;;12.40;97.20;;;;;;4953911;28;20482;-86
2021/09/03 02:04:23;;;;;;;23.48;15.60;;;12.30;97.40;;;;;;4953216;28;20073;-87
2021/09/03 02:06:49;;;;;;;21.05;15.35;;;12.20;97.60;;;;;;4952801;28;20111;-87
2021/09/03 02:09:14;;;;;;;24.27;16.35;;;12.20;97.50;;;;;;4950217;28;20035;-87
2021/09/03 02:11:40;;;;;;;23.63;16.73;;;12.20;97.40;;;;;;4952108;28;20070;-87
2021/09/03 02:14:05;;;;;;;24.95;15.80;;;12.10;97.50;;;;;;4942044;28;20066;-86
2021/09/03 02:16:31;;;;;;;20.88;16.90;;;12.10;97.60;;;;;;4939372;28;20038;-87
2021/09/03 02:18:58;;;;;;;24.90;16.27;;;12.00;98.20;;;;;;4983336;28;20035;-87
2021/09/03 02:21:24;;;;;;;27.55;17.20;;;12.00;98.60;;;;;;4940320;28;20093;-86
2021/09/03 02:23:49;;;;;;;27.42;16.88;;;12.00;99.70;;;;;;4943028;28;20046;-87
2021/09/03 02:26:15;;;;;;;27.80;17.15;;;12.00;98.30;;;;;;4953624;28;20035;-87
2021/09/03 02:28:40;;;;;;;27.80;17.38;;;12.00;98.50;;;;;;4947352;28;20426;-87
2021/09/03 02:31:06;;;;;;;27.85;17.17;;;12.10;98.20;;;;;;4951097;28;20038;-85
2021/09/03 02:33:32;;;;;;;31.05;18.35;;;12.00;98.70;;;;;;4953519;28;20039;-87
2021/09/03 02:35:57;;;;;;;25.38;15.98;;;12.00;98.50;;;;;;4956760;28;20123;-87
2021/09/03 02:38:23;;;;;;;25.20;16.65;;;11.90;98.10;;;;;;4961902;28;20043;-87
2021/09/03 02:40:48;;;;;;;21.33;16.63;;;11.80;98.50;;;;;;4952548;28;20039;-87
2021/09/03 02:43:14;;;;;;;25.33;15.27;;;11.90;98.60;;;;;;4951724;28;20023;-86
2021/09/03 02:45:39;;;;;;;24.83;16.50;;;11.80;99.20;;;;;;4954483;28;20069;-86
2021/09/03 02:48:05;;;;;;;26.00;16.35;;;11.80;98.30;;;;;;4955857;28;20063;-86
2021/09/03 02:50:30;;;;;;;22.63;15.50;;;11.70;98.20;;;;;;4952752;28;20039;-82
2021/09/03 02:52:58;;;;;;;20.33;16.33;;;11.80;98.40;;;;;;4940599;28;20030;-81
2021/09/03 02:55:24;;;;;;;23.05;16.90;;;11.80;98.20;;;;;;4935945;28;20581;-82
2021/09/03 02:57:49;;;;;;;22.73;15.10;;;11.80;98.00;;;;;;4948209;28;20062;-82
2021/09/03 03:00:15;;;;;;;25.00;16.52;;;11.80;98.20;;;;;;4929436;28;20089;-82
2021/09/03 03:02:41;;;;;;;26.05;15.02;;;11.70;97.90;;;;;;4982333;28;20174;-81
2021/09/03 03:05:06;;;;;;;25.83;15.43;;;11.70;98.00;;;;;;4957152;28;20027;-81
2021/09/03 03:07:32;;;;;;;23.77;14.75;;;11.60;98.40;;;;;;4964335;28;20109;-81
2021/09/03 03:09:58;;;;;;;28.23;15.55;;;11.60;98.90;;;;;;4947900;28;20034;-81
2021/09/03 03:12:23;;;;;;;22.63;14.82;;;11.60;99.00;;;;;;4962653;28;20043;-81
2021/09/03 03:14:49;;;;;;;25.33;16.48;;;11.60;98.90;;;;;;4934106;28;20078;-82
2021/09/03 03:17:14;;;;;;;27.70;16.27;;;11.60;99.30;;;;;;4954078;28;20034;-81
2021/09/03 03:19:40;;;;;;;22.52;14.80;;;11.50;99.00;;;;;;4937856;28;20114;-82
2021/09/03 03:22:05;;;;;;;22.83;15.25;;;11.60;98.90;;;;;;4952120;28;20031;-82
2021/09/03 03:24:31;;;;;;;25.70;15.63;;;11.60;98.30;;;;;;4952940;28;20038;-81
2021/09/03 03:26:57;;;;;;;22.38;13.75;;;11.60;98.00;;;;;;4950909;28;20490;-81
2021/09/03 03:29:24;;;;;;;19.35;13.70;;;11.70;97.50;;;;;;4935035;28;20478;-81
2021/09/03 03:31:50;;;;;;;24.35;14.98;;;11.60;97.70;;;;;;4945334;28;20114;-81
2021/09/03 03:34:15;;;;;;;20.25;15.10;;;11.50;98.60;;;;;;4945293;28;20114;-81
2021/09/03 03:36:41;;;;;;;24.60;15.00;;;11.40;99.40;;;;;;4979321;28;20123;-81
2021/09/03 03:39:07;;;;;;;21.10;15.10;;;11.40;98.90;;;;;;4949373;28;20494;-81
2021/09/03 03:41:33;;;;;;;27.55;15.65;;;11.40;98.40;;;;;;4965203;28;20438;-82
2021/09/03 03:43:58;;;;;;;25.08;15.43;;;11.40;99.50;;;;;;4964995;28;20045;-82
2021/09/03 03:46:24;;;;;;;27.25;16.67;;;11.30;99.90;;;;;;4944297;28;20052;-82
2021/09/03 03:48:49;;;;;;;25.92;15.43;;;11.30;99.90;;;;;;4968038;28;20455;-82
2021/09/03 03:51:15;;;;;;;25.70;16.70;;;11.30;99.70;;;;;;4951506;28;20042;-81
2021/09/03 03:53:41;;;;;;;27.85;16.92;;;11.30;99.90;;;;;;4963616;28;20434;-82
2021/09/03 03:56:07;;;;;;;26.90;16.95;;;11.30;99.90;;;;;;4948330;28;20035;-81
2021/09/03 03:58:32;;;;;;;20.80;15.73;;;11.20;99.90;;;;;;4949140;28;20089;-82
2021/09/03 04:00:58;;;;;;;24.15;15.25;;;11.20;99.90;;;;;;4950501;28;20558;-82
2021/09/03 04:03:23;;;;;;;25.20;16.27;;;11.30;99.90;;;;;;4935195;28;20125;-82
2021/09/03 04:06:00;;;;;;;29.73;15.25;;;11.20;99.90;;;;;;4943074;28;20114;-81
2021/09/03 04:08:25;;;;;;;28.67;18.02;;;11.10;99.90;;;;;;4962604;28;20047;-81
2021/09/03 04:10:51;;;;;;;24.90;16.27;;;11.00;99.50;;;;;;4981291;28;20524;-82
2021/09/03 04:13:16;;;;;;;25.27;17.13;;;10.90;99.70;;;;;;4951541;28;20026;-81
2021/09/03 04:15:42;;;;;;;28.85;16.50;;;10.90;99.70;;;;;;4955170;28;20374;-81
2021/09/03 04:18:07;;;;;;;26.30;17.38;;;11.00;99.90;;;;;;4955101;28;20402;-81
2021/09/03 04:20:33;;;;;;;24.58;16.23;;;11.00;99.90;;;;;;4937494;28;20370;-81
2021/09/03 04:22:58;;;;;;;29.73;15.70;;;11.10;99.90;;;;;;4965142;28;20030;-82
2021/09/03 04:25:24;;;;;;;24.60;16.05;;;11.10;99.90;;;;;;4934933;28;20038;-82
2021/09/03 04:27:49;;;;;;;30.83;16.60;;;11.10;99.90;;;;;;4958073;28;20019;-82
2021/09/03 04:30:15;;;;;;;25.67;15.43;;;11.10;99.90;;;;;;4937668;28;20375;-82
2021/09/03 04:32:41;;;;;;;22.63;15.65;;;11.10;99.90;;;;;;4954806;28;20053;-82
2021/09/03 04:35:07;;;;;;;26.92;15.18;;;11.10;99.90;;;;;;4950536;28;20043;-82
2021/09/03 04:37:44;;;;;;;24.60;14.30;;;11.10;99.90;;;;;;4954700;28;20390;-82
2021/09/03 04:40:10;;;;;;;13.98;10.85;;;11.10;99.90;;;;;;4950797;28;20053;-82
2021/09/03 04:42:40;;;;;;;16.75;12.60;;;11.20;98.80;;;;;;4953155;28;20522;-82
2021/09/03 04:45:06;;;;;;;19.50;11.90;;;11.20;98.30;;;;;;4966258;28;20269;-82
2021/09/03 04:47:32;;;;;;;16.55;12.88;;;11.20;99.10;;;;;;4952059;28;20019;-81
2021/09/03 04:49:58;;;;;;;23.13;13.63;;;11.10;99.30;;;;;;4955534;28;20070;-81
2021/09/03 04:52:23;;;;;;;16.80;12.95;;;11.00;99.30;;;;;;4936540;28;20047;-81
2021/09/03 04:54:49;;;;;;;23.33;14.30;;;11.00;99.40;;;;;;4950704;28;20115;-80
2021/09/03 04:57:14;;;;;;;20.33;13.93;;;11.00;99.90;;;;;;4935736;28;20027;-82
2021/09/03 04:59:41;;;;;;;22.88;15.27;;;11.00;99.90;;;;;;4954174;28;20038;-80
2021/09/03 05:02:22;;;;;;;25.45;16.05;;;10.90;99.90;;;;;;4944583;28;20490;-81
2021/09/03 05:04:48;;;;;;;29.70;15.82;;;10.90;99.90;;;;;;4948528;28;21718;-81
2021/09/03 05:07:13;;;;;;;24.45;16.02;;;10.90;99.90;;;;;;4944758;28;20387;-81
2021/09/03 05:09:39;;;;;;;21.77;15.63;;;10.90;99.90;;;;;;4939168;28;20027;-81
2021/09/03 05:12:05;;;;;;;26.23;16.55;;;10.90;99.90;;;;;;4974548;28;20039;-81
2021/09/03 05:14:31;;;;;;;23.80;16.20;;;10.80;99.90;;;;;;4946998;28;20084;-82
2021/09/03 05:16:57;;;;;;;25.42;16.40;;;10.70;99.90;;;;;;4969458;28;20031;-81
2021/09/03 05:19:22;;;;;;;25.30;17.02;;;10.80;99.90;;;;;;4937034;28;20130;-81
2021/09/03 05:21:48;;;;;;;27.67;16.80;;;10.90;99.90;;;;;;4953100;28;20114;-82
2021/09/03 05:24:14;;;;;;;25.88;16.00;;;10.90;99.90;;;;;;4953136;28;20081;-81
2021/09/03 05:26:39;;;;;;;31.73;17.77;;;10.90;99.90;;;;;;4968660;28;20467;-82
2021/09/03 05:29:05;;;;;;;25.63;16.48;;;10.90;99.90;;;;;;4953523;28;20037;-83
2021/09/03 05:31:30;;;;;;;35.50;17.35;;;10.90;99.90;;;;;;4973847;28;20405;-82
2021/09/03 05:33:56;;;;;;;25.52;17.30;;;11.00;99.90;;;;;;4940533;28;20038;-82
2021/09/03 05:36:22;;;;;;;26.50;15.95;;;11.10;99.90;;;;;;4952899;28;20450;-83
2021/09/03 05:38:49;;;;;;;26.52;15.80;;;11.20;99.90;;;;;;4967657;28;20030;-83
2021/09/03 05:41:15;;;;;;;30.02;17.35;;;11.20;99.90;;;;;;4953138;28;20038;-82
2021/09/03 05:43:41;;;;;;;30.15;17.40;;;11.20;99.90;;;;;;4969338;28;20050;-83
2021/09/03 05:46:06;;;;;;;30.60;18.15;;;11.30;99.90;;;;;;4951181;28;20038;-81
2021/09/03 05:48:32;;;;;;;31.80;17.88;;;11.30;99.90;;;;;;4969988;28;20047;-82
2021/09/03 05:50:57;;;;;;;35.17;20.80;;;11.40;99.90;;;;;;4971710;28;20757;-82
2021/09/03 05:53:23;;;;;;;38.08;20.17;;;11.50;99.90;;;;;;4949142;28;20034;-82
2021/09/03 05:55:48;;;;;;;35.20;20.25;;;11.50;99.90;;;;;;4951478;28;20092;-83
2021/09/03 05:58:14;;;;;;;39.65;22.05;;;11.60;99.90;;;;;;4951569;28;20141;-82
2021/09/03 06:00:39;;;;;;;42.70;24.15;;;11.70;99.90;;;;;;4953199;28;20037;-82
2021/09/03 06:03:05;;;;;;;47.08;24.17;;;11.80;99.90;;;;;;4937480;28;20031;-82
2021/09/03 06:05:31;;;;;;;55.60;26.90;;;11.90;99.90;;;;;;4951918;28;20142;-83
2021/09/03 06:07:56;;;;;;;45.75;25.27;;;11.90;99.90;;;;;;4976272;28;20040;-82
2021/09/03 06:10:22;;;;;;;45.30;25.25;;;12.00;99.90;;;;;;4952153;28;20027;-84
2021/09/03 06:12:49;;;;;;;52.25;26.70;;;12.00;99.90;;;;;;4948315;28;20446;-83
2021/09/03 06:15:14;;;;;;;50.67;25.63;;;12.10;99.90;;;;;;4951007;28;20077;-83
2021/09/03 06:17:40;;;;;;;52.53;25.17;;;12.10;99.90;;;;;;4963617;28;20034;-83
2021/09/03 06:20:07;;;;;;;48.92;24.42;;;12.30;99.90;;;;;;4940090;28;20566;-83
2021/09/03 06:22:41;;;;;;;54.33;25.88;;;12.40;99.90;;;;;;4938968;28;20524;-83
2021/09/03 06:25:14;;;;;;;51.08;27.95;;;12.50;99.90;;;;;;4951703;28;20029;-84
2021/09/03 06:27:40;;;;;;;39.65;22.45;;;12.60;99.90;;;;;;4951843;28;20023;-83
2021/09/03 06:30:06;;;;;;;52.05;26.45;;;12.70;99.90;;;;;;4949082;28;20065;-83
2021/09/03 06:32:32;;;;;;;48.05;24.73;;;12.70;99.90;;;;;;4950542;28;20046;-83
2021/09/03 06:35:03;;;;;;;46.88;26.15;;;12.80;99.90;;;;;;4960241;28;20038;-83
2021/09/03 06:37:31;;;;;;;44.65;22.98;;;12.90;99.90;;;;;;4952622;28;20111;-83
2021/09/03 06:39:57;;;;;;;49.15;25.15;;;12.90;99.90;;;;;;4934891;28;20026;-83
2021/09/03 06:42:24;;;;;;;46.70;26.90;;;13.10;99.90;;;;;;4935767;28;20474;-83
2021/09/03 06:44:50;;;;;;;52.03;28.73;;;13.10;99.90;;;;;;4943791;28;20042;-83
2021/09/03 06:47:16;;;;;;;46.05;26.70;;;13.20;99.90;;;;;;4952418;28;20023;-83
2021/09/03 06:49:42;;;;;;;51.13;27.92;;;13.30;99.90;;;;;;4956388;28;20034;-83
2021/09/03 06:52:08;;;;;;;40.33;23.67;;;13.30;99.90;;;;;;4935518;28;20082;-83
2021/09/03 06:54:34;;;;;;;38.05;22.58;;;13.60;99.90;;;;;;4967569;28;20426;-84
2021/09/03 06:57:06;;;;;;;39.85;26.23;;;13.80;99.90;;;;;;4963855;28;20423;-83
2021/09/03 06:59:31;;;;;;;37.83;25.27;;;13.90;99.90;;;;;;4949564;28;20035;-83
2021/09/03 07:01:57;;;;;;;38.15;25.20;;;13.90;99.90;;;;;;4946508;28;20038;-83
2021/09/03 07:04:23;;;;;;;31.42;20.10;;;14.10;99.90;;;;;;4935243;28;20063;-84
2021/09/03 07:06:50;;;;;;;36.97;24.13;;;14.30;99.90;;;;;;4968092;28;20437;-84
2021/09/03 07:09:16;;;;;;;33.92;23.30;;;14.50;99.90;;;;;;4943222;28;20479;-83
2021/09/03 07:11:51;;;;;;;42.50;23.13;;;14.60;99.90;;;;;;4951665;28;20035;-84
2021/09/03 07:14:18;;;;;;;;;;;14.60;99.90;;;;;;4965111;28;20038;-83
2021/09/03 07:16:43;;;;;;;;;;;14.80;99.90;;;;;;4984509;28;20449;-83
2021/09/03 07:19:09;;;;;;;28.00;16.87;;;14.90;99.90;;;;;;4954691;28;19930;-83
2021/09/03 07:21:35;;;;;;;33.58;21.67;;;15.00;99.50;;;;;;4935287;28;20482;-83
2021/09/03 07:24:00;;;;;;;34.65;22.80;;;15.10;99.90;;;;;;4962668;28;20073;-83
2021/09/03 07:26:27;;;;;;;31.48;21.30;;;15.10;99.90;;;;;;4984519;28;20413;-83
2021/09/03 07:28:53;;;;;;;34.50;22.17;;;15.20;99.90;;;;;;4937768;28;20110;-83
2021/09/03 07:31:19;;;;;;;31.25;20.92;;;15.40;99.90;;;;;;4935239;28;20035;-83
2021/09/03 07:33:45;;;;;;;25.48;19.52;;;15.70;99.90;;;;;;4943318;28;20165;-84
2021/09/03 07:36:10;;;;;;;21.80;16.67;;;15.80;99.90;;;;;;4951398;28;20405;-83
2021/09/03 07:38:36;;;;;;;25.80;16.23;;;16.00;99.90;;;;;;4967380;28;20045;-84
2021/09/03 07:41:04;;;;;;;24.98;18.50;;;16.20;99.90;;;;;;4972912;28;20093;-84
2021/09/03 07:43:31;;;;;;;21.77;15.60;;;16.10;99.90;;;;;;4951934;28;20417;-84
2021/09/03 07:45:57;;;;;;;21.85;16.58;;;16.30;99.90;;;;;;4982420;28;20118;-83
2021/09/03 07:48:25;;;;;;;24.38;16.23;;;16.50;99.90;;;;;;4967858;28;20066;-83
2021/09/03 07:50:51;;;;;;;23.55;16.15;;;16.70;99.90;;;;;;4956920;28;20053;-83
2021/09/03 07:53:16;;;;;;;29.65;16.63;;;16.80;99.90;;;;;;4939711;28;20375;-83
2021/09/03 07:55:42;;;;;;;21.15;15.50;;;16.90;99.90;;;;;;4947788;28;20038;-83
2021/09/03 07:58:09;;;;;;;17.55;12.32;;;17.00;99.90;;;;;;4954680;28;20494;-83
2021/09/03 08:00:35;;;;;;;19.77;13.80;;;17.40;99.00;;;;;;4937431;28;20363;-83
2021/09/03 08:03:01;;;;;;;18.38;11.85;;;17.30;99.70;;;;;;4941658;28;20031;-84
2021/09/03 08:05:33;;;;;;;22.08;14.82;;;17.50;98.30;;;;;;4954377;28;20082;-84
2021/09/03 08:08:01;;;;;;;27.23;15.40;;;17.70;99.90;;;;;;4947027;28;20035;-83
2021/09/03 08:10:32;;;;;;;22.52;15.82;;;17.90;99.50;;;;;;4946026;28;20105;-84
2021/09/03 08:13:01;;;;;;;21.30;14.00;;;17.90;99.90;;;;;;4939773;28;20062;-84
2021/09/03 08:15:26;;;;;;;18.15;14.27;;;18.30;99.20;;;;;;4965912;28;20066;-84
2021/09/03 08:17:52;;;;;;;20.10;13.70;;;18.20;99.60;;;;;;4951889;28;20031;-83
2021/09/03 08:20:17;;;;;;;21.52;13.15;;;18.10;99.90;;;;;;4938179;28;20552;-83
2021/09/03 08:22:47;;;;;;;21.05;13.35;;;18.00;99.90;;;;;;4962666;28;20086;-83
2021/09/03 08:25:13;;;;;;;17.52;12.45;;;18.10;99.90;;;;;;4941734;28;20110;-84
2021/09/03 08:27:38;;;;;;;16.85;12.05;;;18.20;99.90;;;;;;4985018;28;20127;-84
2021/09/03 08:30:05;;;;;;;19.08;10.98;;;18.70;99.30;;;;;;4986969;28;20057;-84
2021/09/03 08:32:30;;;;;;;13.40;9.40;;;18.70;99.60;;;;;;4955121;28;20042;-84
2021/09/03 08:34:57;;;;;;;14.32;10.95;;;18.80;98.80;;;;;;4938916;28;20402;-84
2021/09/03 08:37:23;;;;;;;15.75;10.52;;;19.20;99.90;;;;;;4940343;28;20031;-84
2021/09/03 08:39:49;;;;;;;17.42;10.50;;;19.30;98.20;;;;;;4966896;28;20086;-85
2021/09/03 08:42:15;;;;;;;14.02;8.52;;;19.20;99.90;;;;;;4955058;28;20031;-84
2021/09/03 08:44:40;;;;;;;12.48;8.40;;;19.60;97.70;;;;;;4953520;28;20042;-84
2021/09/03 08:47:09;;;;;;;15.00;9.38;;;20.00;97.40;;;;;;4961765;28;20469;-84
2021/09/03 08:49:34;;;;;;;11.65;8.02;;;19.90;98.60;;;;;;4946798;28;20801;-83
2021/09/03 08:52:00;;;;;;;15.80;9.98;;;20.10;97.30;;;;;;4945116;28;20034;-84
2021/09/03 08:54:26;;;;;;;11.00;8.95;;;20.20;98.50;;;;;;4970436;28;20039;-84
2021/09/03 08:56:54;;;;;;;14.40;8.05;;;20.00;98.00;;;;;;4953455;28;20097;-84
2021/09/03 08:59:22;;;;;;;13.38;9.90;;;20.90;97.10;;;;;;4951422;28;20714;-84
2021/09/03 09:02:10;;;;;;;10.00;7.68;;;20.70;96.50;;;;;;4950655;28;20027;-84
2021/09/03 09:04:40;;;;;;;14.70;9.13;;;21.10;96.60;;;;;;4954552;28;20035;-84
2021/09/03 09:07:05;;;;;;;12.65;8.65;;;21.10;97.00;;;;;;4943007;28;20075;-85
2021/09/03 09:09:33;;;;;;;17.00;9.48;;;21.10;96.90;;;;;;4933886;28;20050;-84
2021/09/03 09:12:05;;;;;;;16.52;9.32;;;21.30;98.40;;;;;;4968308;28;20063;-84
2021/09/03 09:14:53;;;;;;;10.52;8.43;;;21.10;98.20;;;;;;4937964;28;20082;-84
2021/09/03 09:17:33;;;;;;;14.25;9.70;;;21.30;97.80;;;;;;4966338;28;20034;-84
2021/09/03 09:19:59;;;;;;;11.55;8.38;;;21.60;98.30;;;;;;4951031;28;20042;-85
2021/09/03 09:22:24;;;;;;;10.63;8.10;;;21.60;96.60;;;;;;4933294;28;20101;-85
2021/09/03 09:24:50;;;;;;;11.07;8.07;;;21.90;97.50;;;;;;4951928;28;20031;-85
2021/09/03 09:27:25;;;;;;;10.68;6.63;;;21.70;97.80;;;;;;4953288;28;20034;-84
2021/09/03 09:29:51;;;;;;;10.70;8.40;;;22.00;96.60;;;;;;4945633;28;20547;-83
2021/09/03 09:32:37;;;;;;;10.95;7.45;;;22.30;96.50;;;;;;4962923;28;20114;-85
2021/09/03 09:35:08;;;;;;;10.82;6.93;;;22.60;95.30;;;;;;4967362;28;20042;-84
2021/09/03 09:37:36;;;;;;;11.52;6.97;;;22.50;96.60;;;;;;4970280;28;20446;-85
2021/09/03 09:40:11;;;;;;;9.40;7.10;;;22.40;95.20;;;;;;4950771;28;20506;-85
2021/09/03 09:42:37;;;;;;;10.15;8.10;;;22.30;97.40;;;;;;4931663;28;20057;-85
2021/09/03 09:45:14;;;;;;;9.43;7.30;;;22.00;98.10;;;;;;4950689;28;20027;-85
2021/09/03 09:47:41;;;;;;;8.88;7.00;;;22.70;95.90;;;;;;4950116;28;20030;-85
2021/09/03 09:50:25;;;;;;;12.50;6.88;;;23.10;94.40;;;;;;4952241;28;20083;-85
2021/09/03 09:52:51;;;;;;;9.65;7.00;;;23.10;94.50;;;;;;4966933;28;20105;-85
2021/09/03 09:55:16;;;;;;;9.23;6.13;;;23.20;95.60;;;;;;4935869;28;20106;-85
2021/09/03 09:57:42;;;;;;;10.68;6.55;;;23.40;95.20;;;;;;4974112;28;20402;-85
2021/09/03 10:00:09;;;;;;;12.93;7.25;;;23.70;94.90;;;;;;4941922;28;20058;-85
2021/09/03 10:02:34;;;;;;;12.43;6.93;;;24.10;94.50;;;;;;4967843;28;20053;-86
2021/09/03 10:05:01;;;;;;;10.30;6.75;;;24.20;95.30;;;;;;4937618;28;20118;-87
2021/09/03 10:07:27;;;;;;;7.20;5.60;;;23.80;94.10;;;;;;4968200;28;20035;-86
2021/09/03 10:10:00;;;;;;;10.05;6.63;;;25.20;92.30;;;;;;4936495;28;20027;-86
2021/09/03 10:12:30;;;;;;;9.98;6.90;;;25.10;93.20;;;;;;4943398;28;20062;-86
2021/09/03 10:14:59;;;;;;;7.80;6.30;;;25.10;90.40;;;;;;4935358;28;20024;-86
2021/09/03 10:17:27;;;;;;;8.18;6.50;;;24.60;94.60;;;;;;4970085;28;20411;-87
2021/09/03 10:19:52;;;;;;;11.95;6.80;;;24.40;93.70;;;;;;4972250;28;20035;-86
2021/09/03 10:22:21;;;;;;;10.35;6.40;;;24.30;94.80;;;;;;4951523;28;20097;-86
2021/09/03 10:24:47;;;;;;;7.60;6.13;;;24.20;95.50;;;;;;4958415;28;20054;-86
2021/09/03 10:27:13;;;;;;;11.10;6.28;;;24.10;95.30;;;;;;4950937;28;20034;-86
2021/09/03 10:29:43;;;;;;;10.15;6.43;;;24.20;94.60;;;;;;4952860;28;20088;-88
2021/09/03 10:32:21;;;;;;;6.22;5.63;;;24.50;95.90;;;;;;4599540;28;10000580;-87
2021/09/03 10:34:50;;;;;;;8.90;5.40;;;25.50;92.60;;;;;;4968981;28;20409;-86
2021/09/03 10:37:16;;;;;;;6.90;5.80;;;27.40;88.00;;;;;;4915115;28;20042;-87
2021/09/03 10:40:15;;;;;;;7.95;5.38;;;27.30;90.10;;;;;;4969120;28;20043;-86
2021/09/03 10:42:48;;;;;;;6.30;5.70;;;26.20;91.20;;;;;;4921806;28;20101;-87
2021/09/03 10:45:20;;;;;;;7.65;5.65;;;26.10;92.00;;;;;;4959447;28;20498;-87
2021/09/03 10:48:03;;;;;;;6.88;5.35;;;26.90;87.70;;;;;;4968088;28;20050;-87
2021/09/03 10:50:52;;;;;;;9.50;6.90;;;28.20;82.00;;;;;;4945338;28;20682;-85
2021/09/03 10:53:23;;;;;;;9.77;5.75;;;26.20;92.00;;;;;;4980835;28;20375;-85
2021/09/03 10:55:55;;;;;;;9.95;5.95;;;25.70;91.20;;;;;;4942638;28;20030;-86
2021/09/03 10:58:49;;;;;;;9.05;6.53;;;25.60;93.30;;;;;;4979200;28;20039;-87
2021/09/03 11:01:18;;;;;;;11.50;7.63;;;25.30;93.80;;;;;;4946792;28;20035;-86
2021/09/03 11:04:03;;;;;;;11.88;6.07;;;25.20;94.30;;;;;;4966794;28;21611;-88
2021/09/03 11:06:48;;;;;;;9.48;5.68;;;26.10;92.90;;;;;;4949720;28;20034;-87
2021/09/03 11:09:16;;;;;;;6.50;5.75;;;26.00;92.70;;;;;;4967209;28;20027;-87
2021/09/03 11:14:36;;;;;;;9.45;6.35;;;29.40;80.50;;;;;;4951388;28;20576;-88
2021/09/03 11:17:07;;;;;;;13.88;8.13;;;28.60;83.90;;;;;;4958845;28;20041;-87
2021/09/03 11:19:38;;;;;;;13.45;8.13;;;26.80;90.00;;;;;;4946883;28;20043;-88
2021/09/03 11:22:12;;;;;;;9.88;7.57;;;26.50;91.40;;;;;;4962684;28;20813;-88
2021/09/03 11:24:48;;;;;;;12.32;7.18;;;26.00;91.60;;;;;;4918566;28;20058;-88
2021/09/03 11:27:15;;;;;;;8.85;7.80;;;25.70;93.00;;;;;;4936487;28;20094;-88
2021/09/03 11:29:53;;;;;;;7.93;6.53;;;26.20;92.50;;;;;;4940136;28;20038;-89
2021/09/03 11:32:37;;;;;;;10.52;7.13;;;25.90;93.00;;;;;;4961532;28;20177;-89
2021/09/03 11:35:13;;;;;;;11.13;7.55;;;25.90;93.10;;;;;;4974339;28;20049;-91
2021/09/03 11:37:48;;;;;;;6.75;5.93;;;26.80;90.90;;;;;;4968280;28;20058;-91
2021/09/03 11:40:28;;;;;;;8.55;6.72;;;28.00;86.50;;;;;;4968074;28;20035;-90
2021/09/03 11:43:02;;;;;;;12.82;7.97;;;28.00;87.80;;;;;;4960030;28;20033;-90
2021/09/03 11:45:36;;;;;;;7.18;6.13;;;27.10;90.50;;;;;;4952070;28;20035;-90
2021/09/03 11:48:06;;;;;;;8.80;6.55;;;27.50;88.10;;;;;;4951161;28;20524;-90
2021/09/03 11:54:32;;;;;;;6.95;5.75;;;28.20;86.60;;;;;;4908187;28;20071;-91
2021/09/03 11:57:32;;;;;;;8.32;5.25;;;28.80;84.30;;;;;;4968953;28;20039;-92
2021/09/03 12:00:36;;;;;;;;;;;;;;;;;;;;;
2021/09/03 12:03:48;;;;;;;6.30;5.55;;;31.20;73.30;;;;;;4942574;28;20299;-92
2021/09/03 12:07:15;;;;;;;;;;;;;;;;;;;;;
2021/09/03 12:11:10;;;;;;;10.07;5.78;;;29.60;86.10;;;;;;4848070;29;20157;-92
2021/09/03 12:13:42;;;;;;;8.63;6.70;;;29.40;85.30;;;;;;4793252;29;20053;-91
2021/09/03 12:16:16;;;;;;;7.55;5.43;;;29.50;81.70;;;;;;4832428;29;20050;-89
2021/09/03 12:18:44;;;;;;;5.75;5.25;;;30.60;77.00;;;;;;4851811;28;20043;-90
2021/09/03 12:21:37;;;;;;;6.20;5.55;;;30.60;80.10;;;;;;4948732;28;20031;-88
2021/09/03 12:24:12;;;;;;;6.22;5.43;;;30.40;79.10;;;;;;4945108;28;20042;-89
2021/09/03 12:26:49;;;;;;;8.88;6.63;;;30.20;78.80;;;;;;4945751;28;20054;-90
2021/09/03 12:29:29;;;;;;;11.57;7.13;;;29.80;81.90;;;;;;4944509;28;20048;-89
2021/09/03 12:32:00;;;;;;;11.55;8.38;;;30.20;80.30;;;;;;4917116;28;20398;-89
2021/09/03 12:34:27;;;;;;;12.18;8.98;;;29.20;83.10;;;;;;4944481;28;20090;-88
2021/09/03 12:37:22;;;;;;;9.38;8.07;;;28.70;82.90;;;;;;4954786;28;20118;-88
2021/09/03 12:39:59;;;;;;;9.90;6.00;;;28.70;85.90;;;;;;4932851;28;20039;-88
2021/09/03 12:42:25;;;;;;;8.82;7.05;;;30.10;81.40;;;;;;4921744;28;20576;-88
2021/09/03 12:44:59;;;;;;;8.27;7.38;;;29.60;85.60;;;;;;4947375;28;20031;-87
2021/09/03 12:47:24;;;;;;;9.20;6.15;;;29.10;84.10;;;;;;4960975;28;20108;-88